sensor_id;sensor_type;location;lat;lon;timestamp;P1;durP1;ratioP1;P2;durP2;ratioP2
19800;SDS011;10060;48.274;12.214;2023-02-03T00:01:42;5.67;;;2.93;;
19800;SDS011;10060;48.274;12.214;2023-02-03T00:04:46;8.17;;;3.27;;
19800;SDS011;10060;48.274;12.214;2023-02-03T00:07:48;5.77;;;3.50;;
19800;SDS011;10060;48.274;12.214;2023-02-03T00:10:50;5.90;;;3.23;;
19800;SDS011;10060;48.274;12.214;2023-02-03T00:13:52;10.50;;;3.67;;
19800;SDS011;10060;48.274;12.214;2023-02-03T00:16:54;4.50;;;2.90;;
19800;SDS011;10060;48.274;12.214;2023-02-03T00:19:58;4.77;;;2.80;;
19800;SDS011;10060;48.274;12.214;2023-02-03T00:23:03;5.77;;;3.07;;
19800;SDS011;10060;48.274;12.214;2023-02-03T00:26:06;5.33;;;3.30;;
19800;SDS011;10060;48.274;12.214;2023-02-03T00:29:08;3.67;;;2.97;;
19800;SDS011;10060;48.274;12.214;2023-02-03T00:32:10;8.27;;;2.63;;
19800;SDS011;10060;48.274;12.214;2023-02-03T00:35:14;4.47;;;3.07;;
19800;SDS011;10060;48.274;12.214;2023-02-03T00:38:16;4.20;;;3.10;;
19800;SDS011;10060;48.274;12.214;2023-02-03T00:41:18;4.83;;;3.07;;
19800;SDS011;10060;48.274;12.214;2023-02-03T00:44:21;5.13;;;2.67;;
19800;SDS011;10060;48.274;12.214;2023-02-03T00:47:23;5.73;;;3.33;;
19800;SDS011;10060;48.274;12.214;2023-02-03T00:50:26;8.07;;;3.80;;
19800;SDS011;10060;48.274;12.214;2023-02-03T00:53:28;3.97;;;3.00;;
19800;SDS011;10060;48.274;12.214;2023-02-03T00:56:31;3.83;;;2.83;;
19800;SDS011;10060;48.274;12.214;2023-02-03T00:59:33;5.50;;;3.43;;
19800;SDS011;10060;48.274;12.214;2023-02-03T01:02:35;5.07;;;2.80;;
19800;SDS011;10060;48.274;12.214;2023-02-03T01:05:38;7.87;;;3.37;;
19800;SDS011;10060;48.274;12.214;2023-02-03T01:08:40;6.97;;;2.97;;
19800;SDS011;10060;48.274;12.214;2023-02-03T01:11:43;6.40;;;3.30;;
19800;SDS011;10060;48.274;12.214;2023-02-03T01:14:45;2.40;;;2.20;;
19800;SDS011;10060;48.274;12.214;2023-02-03T01:17:47;5.87;;;2.53;;
19800;SDS011;10060;48.274;12.214;2023-02-03T01:20:50;5.73;;;2.73;;
19800;SDS011;10060;48.274;12.214;2023-02-03T01:23:52;3.07;;;2.77;;
19800;SDS011;10060;48.274;12.214;2023-02-03T01:26:55;3.97;;;2.60;;
19800;SDS011;10060;48.274;12.214;2023-02-03T01:29:57;5.73;;;2.80;;
19800;SDS011;10060;48.274;12.214;2023-02-03T01:32:59;10.13;;;2.70;;
19800;SDS011;10060;48.274;12.214;2023-02-03T01:36:02;6.40;;;2.97;;
19800;SDS011;10060;48.274;12.214;2023-02-03T01:39:04;7.20;;;2.70;;
19800;SDS011;10060;48.274;12.214;2023-02-03T01:42:07;4.80;;;2.80;;
19800;SDS011;10060;48.274;12.214;2023-02-03T01:45:09;3.17;;;2.30;;
19800;SDS011;10060;48.274;12.214;2023-02-03T01:48:12;3.83;;;2.70;;
19800;SDS011;10060;48.274;12.214;2023-02-03T01:51:18;2.63;;;2.33;;
19800;SDS011;10060;48.274;12.214;2023-02-03T01:54:21;3.40;;;2.57;;
19800;SDS011;10060;48.274;12.214;2023-02-03T01:57:26;3.23;;;2.77;;
19800;SDS011;10060;48.274;12.214;2023-02-03T02:00:29;4.13;;;2.63;;
19800;SDS011;10060;48.274;12.214;2023-02-03T02:03:33;4.70;;;2.37;;
19800;SDS011;10060;48.274;12.214;2023-02-03T02:06:38;4.13;;;2.50;;
19800;SDS011;10060;48.274;12.214;2023-02-03T02:09:41;10.27;;;3.03;;
19800;SDS011;10060;48.274;12.214;2023-02-03T02:12:43;3.87;;;2.70;;
19800;SDS011;10060;48.274;12.214;2023-02-03T02:15:48;4.70;;;2.83;;
19800;SDS011;10060;48.274;12.214;2023-02-03T02:18:59;5.60;;;3.20;;
19800;SDS011;10060;48.274;12.214;2023-02-03T02:22:09;7.13;;;2.70;;
19800;SDS011;10060;48.274;12.214;2023-02-03T02:25:28;3.07;;;2.33;;
19800;SDS011;10060;48.274;12.214;2023-02-03T02:28:49;2.93;;;2.33;;
19800;SDS011;10060;48.274;12.214;2023-02-03T02:32:00;5.37;;;2.70;;
19800;SDS011;10060;48.274;12.214;2023-02-03T02:35:06;5.33;;;2.67;;
19800;SDS011;10060;48.274;12.214;2023-02-03T02:38:12;3.10;;;2.50;;
19800;SDS011;10060;48.274;12.214;2023-02-03T02:41:17;4.80;;;2.50;;
19800;SDS011;10060;48.274;12.214;2023-02-03T02:44:21;4.20;;;2.60;;
19800;SDS011;10060;48.274;12.214;2023-02-03T02:47:25;3.30;;;2.40;;
19800;SDS011;10060;48.274;12.214;2023-02-03T02:50:28;2.50;;;2.30;;
19800;SDS011;10060;48.274;12.214;2023-02-03T02:53:33;3.57;;;2.40;;
19800;SDS011;10060;48.274;12.214;2023-02-03T02:56:37;2.60;;;2.40;;
19800;SDS011;10060;48.274;12.214;2023-02-03T02:59:40;3.47;;;2.60;;
19800;SDS011;10060;48.274;12.214;2023-02-03T03:02:43;3.83;;;2.10;;
19800;SDS011;10060;48.274;12.214;2023-02-03T03:05:47;6.17;;;2.57;;
19800;SDS011;10060;48.274;12.214;2023-02-03T03:08:51;2.70;;;2.50;;
19800;SDS011;10060;48.274;12.214;2023-02-03T03:11:55;9.07;;;3.60;;
19800;SDS011;10060;48.274;12.214;2023-02-03T03:14:59;3.20;;;2.43;;
19800;SDS011;10060;48.274;12.214;2023-02-03T03:18:04;4.40;;;2.53;;
19800;SDS011;10060;48.274;12.214;2023-02-03T03:21:06;4.50;;;2.53;;
19800;SDS011;10060;48.274;12.214;2023-02-03T03:24:09;2.43;;;2.23;;
19800;SDS011;10060;48.274;12.214;2023-02-03T03:27:13;3.57;;;2.13;;
19800;SDS011;10060;48.274;12.214;2023-02-03T03:30:17;4.00;;;2.17;;
19800;SDS011;10060;48.274;12.214;2023-02-03T03:33:22;4.20;;;2.30;;
19800;SDS011;10060;48.274;12.214;2023-02-03T03:36:26;3.70;;;2.60;;
19800;SDS011;10060;48.274;12.214;2023-02-03T03:39:31;2.20;;;2.00;;
19800;SDS011;10060;48.274;12.214;2023-02-03T03:42:37;2.33;;;2.13;;
19800;SDS011;10060;48.274;12.214;2023-02-03T03:45:40;2.60;;;2.40;;
19800;SDS011;10060;48.274;12.214;2023-02-03T03:48:47;5.33;;;3.67;;
19800;SDS011;10060;48.274;12.214;2023-02-03T03:51:53;2.90;;;2.10;;
19800;SDS011;10060;48.274;12.214;2023-02-03T03:54:56;4.17;;;2.40;;
19800;SDS011;10060;48.274;12.214;2023-02-03T03:58:00;2.00;;;1.90;;
19800;SDS011;10060;48.274;12.214;2023-02-03T04:01:04;2.23;;;2.13;;
19800;SDS011;10060;48.274;12.214;2023-02-03T04:04:09;2.73;;;2.27;;
19800;SDS011;10060;48.274;12.214;2023-02-03T04:07:12;3.20;;;2.73;;
19800;SDS011;10060;48.274;12.214;2023-02-03T04:10:17;5.67;;;2.63;;
19800;SDS011;10060;48.274;12.214;2023-02-03T04:13:20;3.40;;;2.10;;
19800;SDS011;10060;48.274;12.214;2023-02-03T04:16:22;3.10;;;2.20;;
19800;SDS011;10060;48.274;12.214;2023-02-03T04:19:25;2.97;;;2.33;;
19800;SDS011;10060;48.274;12.214;2023-02-03T04:22:27;5.33;;;2.30;;
19800;SDS011;10060;48.274;12.214;2023-02-03T04:25:29;5.50;;;2.60;;
19800;SDS011;10060;48.274;12.214;2023-02-03T04:28:32;3.33;;;2.50;;
19800;SDS011;10060;48.274;12.214;2023-02-03T04:31:34;4.80;;;2.50;;
19800;SDS011;10060;48.274;12.214;2023-02-03T04:34:38;4.00;;;2.50;;
19800;SDS011;10060;48.274;12.214;2023-02-03T04:37:40;3.40;;;2.23;;
19800;SDS011;10060;48.274;12.214;2023-02-03T04:40:43;2.40;;;2.20;;
19800;SDS011;10060;48.274;12.214;2023-02-03T04:43:45;3.03;;;2.00;;
19800;SDS011;10060;48.274;12.214;2023-02-03T04:46:47;2.03;;;1.93;;
19800;SDS011;10060;48.274;12.214;2023-02-03T04:49:50;2.30;;;2.00;;
19800;SDS011;10060;48.274;12.214;2023-02-03T04:52:53;2.40;;;2.20;;
19800;SDS011;10060;48.274;12.214;2023-02-03T04:55:55;3.27;;;2.43;;
19800;SDS011;10060;48.274;12.214;2023-02-03T04:58:57;2.20;;;2.00;;
19800;SDS011;10060;48.274;12.214;2023-02-03T05:02:00;6.80;;;2.63;;
19800;SDS011;10060;48.274;12.214;2023-02-03T05:05:04;2.23;;;2.00;;
19800;SDS011;10060;48.274;12.214;2023-02-03T05:08:07;4.77;;;2.30;;
19800;SDS011;10060;48.274;12.214;2023-02-03T05:11:09;4.37;;;2.23;;
19800;SDS011;10060;48.274;12.214;2023-02-03T05:14:11;2.70;;;2.50;;
19800;SDS011;10060;48.274;12.214;2023-02-03T05:17:13;2.20;;;2.00;;
19800;SDS011;10060;48.274;12.214;2023-02-03T05:20:16;4.47;;;2.10;;
19800;SDS011;10060;48.274;12.214;2023-02-03T05:23:19;4.50;;;1.97;;
19800;SDS011;10060;48.274;12.214;2023-02-03T05:26:21;2.10;;;1.90;;
19800;SDS011;10060;48.274;12.214;2023-02-03T05:29:23;2.50;;;2.20;;
19800;SDS011;10060;48.274;12.214;2023-02-03T05:32:25;5.33;;;2.37;;
19800;SDS011;10060;48.274;12.214;2023-02-03T05:35:28;3.03;;;2.30;;
19800;SDS011;10060;48.274;12.214;2023-02-03T05:38:30;4.47;;;2.90;;
19800;SDS011;10060;48.274;12.214;2023-02-03T05:41:32;4.00;;;2.20;;
19800;SDS011;10060;48.274;12.214;2023-02-03T05:44:53;2.67;;;2.20;;
19800;SDS011;10060;48.274;12.214;2023-02-03T05:47:55;2.60;;;2.33;;
19800;SDS011;10060;48.274;12.214;2023-02-03T05:50:58;4.87;;;2.63;;
19800;SDS011;10060;48.274;12.214;2023-02-03T05:54:00;3.63;;;1.90;;
19800;SDS011;10060;48.274;12.214;2023-02-03T05:57:02;2.70;;;2.20;;
19800;SDS011;10060;48.274;12.214;2023-02-03T06:00:05;2.40;;;2.10;;
19800;SDS011;10060;48.274;12.214;2023-02-03T06:03:07;3.33;;;2.30;;
19800;SDS011;10060;48.274;12.214;2023-02-03T06:06:11;2.30;;;2.10;;
19800;SDS011;10060;48.274;12.214;2023-02-03T06:09:13;3.20;;;2.13;;
19800;SDS011;10060;48.274;12.214;2023-02-03T06:12:15;7.03;;;2.17;;
19800;SDS011;10060;48.274;12.214;2023-02-03T06:15:17;4.33;;;2.67;;
19800;SDS011;10060;48.274;12.214;2023-02-03T06:18:19;4.50;;;2.20;;
19800;SDS011;10060;48.274;12.214;2023-02-03T06:21:23;4.97;;;2.60;;
19800;SDS011;10060;48.274;12.214;2023-02-03T06:24:25;4.80;;;2.30;;
19800;SDS011;10060;48.274;12.214;2023-02-03T06:27:27;2.73;;;2.50;;
19800;SDS011;10060;48.274;12.214;2023-02-03T06:30:29;3.27;;;2.10;;
19800;SDS011;10060;48.274;12.214;2023-02-03T06:33:31;5.63;;;2.30;;
19800;SDS011;10060;48.274;12.214;2023-02-03T06:36:35;3.70;;;1.80;;
19800;SDS011;10060;48.274;12.214;2023-02-03T06:39:37;2.77;;;1.93;;
19800;SDS011;10060;48.274;12.214;2023-02-03T06:42:39;4.27;;;2.03;;
19800;SDS011;10060;48.274;12.214;2023-02-03T06:45:43;3.00;;;1.93;;
19800;SDS011;10060;48.274;12.214;2023-02-03T06:48:46;1.80;;;1.70;;
19800;SDS011;10060;48.274;12.214;2023-02-03T06:51:49;2.53;;;2.30;;
19800;SDS011;10060;48.274;12.214;2023-02-03T06:54:52;1.87;;;1.77;;
19800;SDS011;10060;48.274;12.214;2023-02-03T06:57:54;2.10;;;1.90;;
19800;SDS011;10060;48.274;12.214;2023-02-03T07:00:56;1.87;;;1.77;;
19800;SDS011;10060;48.274;12.214;2023-02-03T07:03:58;7.20;;;2.13;;
19800;SDS011;10060;48.274;12.214;2023-02-03T07:07:02;2.47;;;2.00;;
19800;SDS011;10060;48.274;12.214;2023-02-03T07:10:04;2.63;;;1.90;;
19800;SDS011;10060;48.274;12.214;2023-02-03T07:13:06;1.87;;;1.77;;
19800;SDS011;10060;48.274;12.214;2023-02-03T07:16:08;2.50;;;1.90;;
19800;SDS011;10060;48.274;12.214;2023-02-03T07:19:10;4.60;;;2.10;;
19800;SDS011;10060;48.274;12.214;2023-02-03T07:22:14;2.20;;;1.97;;
19800;SDS011;10060;48.274;12.214;2023-02-03T07:25:16;2.33;;;2.10;;
19800;SDS011;10060;48.274;12.214;2023-02-03T07:28:18;2.40;;;2.20;;
19800;SDS011;10060;48.274;12.214;2023-02-03T07:31:20;2.03;;;1.83;;
19800;SDS011;10060;48.274;12.214;2023-02-03T07:34:22;3.53;;;1.70;;
19800;SDS011;10060;48.274;12.214;2023-02-03T07:37:26;2.10;;;1.70;;
19800;SDS011;10060;48.274;12.214;2023-02-03T07:40:28;1.60;;;1.50;;
19800;SDS011;10060;48.274;12.214;2023-02-03T07:43:30;1.87;;;1.57;;
19800;SDS011;10060;48.274;12.214;2023-02-03T07:46:32;3.57;;;1.93;;
19800;SDS011;10060;48.274;12.214;2023-02-03T07:49:34;2.37;;;2.17;;
19800;SDS011;10060;48.274;12.214;2023-02-03T07:52:37;2.17;;;1.83;;
19800;SDS011;10060;48.274;12.214;2023-02-03T07:55:40;3.80;;;1.90;;
19800;SDS011;10060;48.274;12.214;2023-02-03T07:58:42;6.47;;;1.83;;
19800;SDS011;10060;48.274;12.214;2023-02-03T08:01:44;1.67;;;1.57;;
19800;SDS011;10060;48.274;12.214;2023-02-03T08:04:49;3.27;;;2.13;;
19800;SDS011;10060;48.274;12.214;2023-02-03T08:07:52;1.90;;;1.73;;
19800;SDS011;10060;48.274;12.214;2023-02-03T08:10:54;2.20;;;2.00;;
19800;SDS011;10060;48.274;12.214;2023-02-03T08:13:56;2.10;;;1.90;;
19800;SDS011;10060;48.274;12.214;2023-02-03T08:16:58;2.90;;;2.37;;
19800;SDS011;10060;48.274;12.214;2023-02-03T08:20:01;4.40;;;2.10;;
19800;SDS011;10060;48.274;12.214;2023-02-03T08:23:04;1.70;;;1.57;;
19800;SDS011;10060;48.274;12.214;2023-02-03T08:26:06;1.63;;;1.53;;
19800;SDS011;10060;48.274;12.214;2023-02-03T08:29:08;1.80;;;1.70;;
19800;SDS011;10060;48.274;12.214;2023-02-03T08:32:12;1.60;;;1.50;;
19800;SDS011;10060;48.274;12.214;2023-02-03T08:35:14;2.70;;;1.50;;
19800;SDS011;10060;48.274;12.214;2023-02-03T08:38:17;1.67;;;1.57;;
19800;SDS011;10060;48.274;12.214;2023-02-03T08:41:20;1.97;;;1.80;;
19800;SDS011;10060;48.274;12.214;2023-02-03T08:44:22;5.00;;;2.50;;
19800;SDS011;10060;48.274;12.214;2023-02-03T08:47:25;1.50;;;1.40;;
19800;SDS011;10060;48.274;12.214;2023-02-03T08:50:27;1.80;;;1.70;;
19800;SDS011;10060;48.274;12.214;2023-02-03T08:53:30;1.60;;;1.50;;
19800;SDS011;10060;48.274;12.214;2023-02-03T08:56:32;1.57;;;1.47;;
19800;SDS011;10060;48.274;12.214;2023-02-03T08:59:36;1.53;;;1.43;;
19800;SDS011;10060;48.274;12.214;2023-02-03T09:02:39;2.43;;;1.80;;
19800;SDS011;10060;48.274;12.214;2023-02-03T09:05:41;1.93;;;1.70;;
19800;SDS011;10060;48.274;12.214;2023-02-03T09:08:47;1.60;;;1.50;;
19800;SDS011;10060;48.274;12.214;2023-02-03T09:11:49;2.57;;;1.80;;
19800;SDS011;10060;48.274;12.214;2023-02-03T09:14:51;1.67;;;1.57;;
19800;SDS011;10060;48.274;12.214;2023-02-03T09:17:53;2.00;;;1.80;;
19800;SDS011;10060;48.274;12.214;2023-02-03T09:21:00;1.73;;;1.63;;
19800;SDS011;10060;48.274;12.214;2023-02-03T09:24:03;1.90;;;1.60;;
19800;SDS011;10060;48.274;12.214;2023-02-03T09:27:06;3.53;;;1.53;;
19800;SDS011;10060;48.274;12.214;2023-02-03T09:30:09;2.23;;;1.70;;
19800;SDS011;10060;48.274;12.214;2023-02-03T09:33:12;2.83;;;2.07;;
19800;SDS011;10060;48.274;12.214;2023-02-03T09:36:14;1.83;;;1.60;;
19800;SDS011;10060;48.274;12.214;2023-02-03T09:39:18;2.17;;;1.57;;
19800;SDS011;10060;48.274;12.214;2023-02-03T09:42:26;3.33;;;1.60;;
19800;SDS011;10060;48.274;12.214;2023-02-03T09:45:30;2.70;;;1.53;;
19800;SDS011;10060;48.274;12.214;2023-02-03T09:48:34;2.23;;;1.97;;
19800;SDS011;10060;48.274;12.214;2023-02-03T09:51:39;3.17;;;1.53;;
19800;SDS011;10060;48.274;12.214;2023-02-03T09:54:49;1.87;;;1.70;;
19800;SDS011;10060;48.274;12.214;2023-02-03T09:57:54;1.60;;;1.50;;
19800;SDS011;10060;48.274;12.214;2023-02-03T10:01:00;1.63;;;1.53;;
19800;SDS011;10060;48.274;12.214;2023-02-03T10:04:06;1.67;;;1.50;;
19800;SDS011;10060;48.274;12.214;2023-02-03T10:07:13;1.43;;;1.37;;
19800;SDS011;10060;48.274;12.214;2023-02-03T10:10:23;1.30;;;1.30;;
19800;SDS011;10060;48.274;12.214;2023-02-03T10:13:27;1.33;;;1.30;;
19800;SDS011;10060;48.274;12.214;2023-02-03T10:16:34;1.37;;;1.37;;
19800;SDS011;10060;48.274;12.214;2023-02-03T10:19:41;1.60;;;1.50;;
19800;SDS011;10060;48.274;12.214;2023-02-03T10:22:44;1.10;;;1.10;;
19800;SDS011;10060;48.274;12.214;2023-02-03T10:25:50;1.90;;;1.43;;
19800;SDS011;10060;48.274;12.214;2023-02-03T10:28:54;1.70;;;1.50;;
19800;SDS011;10060;48.274;12.214;2023-02-03T10:31:57;1.43;;;1.33;;
19800;SDS011;10060;48.274;12.214;2023-02-03T10:34:59;1.60;;;1.50;;
19800;SDS011;10060;48.274;12.214;2023-02-03T10:38:02;1.93;;;1.50;;
19800;SDS011;10060;48.274;12.214;2023-02-03T10:41:07;1.47;;;1.43;;
19800;SDS011;10060;48.274;12.214;2023-02-03T10:44:09;1.27;;;1.27;;
19800;SDS011;10060;48.274;12.214;2023-02-03T10:47:15;1.80;;;1.43;;
19800;SDS011;10060;48.274;12.214;2023-02-03T10:50:19;1.77;;;1.63;;
19800;SDS011;10060;48.274;12.214;2023-02-03T10:53:23;2.13;;;1.40;;
19800;SDS011;10060;48.274;12.214;2023-02-03T10:56:28;1.43;;;1.33;;
19800;SDS011;10060;48.274;12.214;2023-02-03T10:59:32;3.70;;;1.40;;
19800;SDS011;10060;48.274;12.214;2023-02-03T11:02:35;1.30;;;1.30;;
19800;SDS011;10060;48.274;12.214;2023-02-03T11:05:37;6.33;;;1.60;;
19800;SDS011;10060;48.274;12.214;2023-02-03T11:08:40;1.70;;;1.60;;
19800;SDS011;10060;48.274;12.214;2023-02-03T11:11:43;1.70;;;1.60;;
19800;SDS011;10060;48.274;12.214;2023-02-03T11:14:46;2.10;;;1.90;;
19800;SDS011;10060;48.274;12.214;2023-02-03T11:17:49;1.53;;;1.43;;
19800;SDS011;10060;48.274;12.214;2023-02-03T11:20:51;1.60;;;1.50;;
19800;SDS011;10060;48.274;12.214;2023-02-03T11:23:54;1.50;;;1.40;;
19800;SDS011;10060;48.274;12.214;2023-02-03T11:26:59;1.70;;;1.60;;
19800;SDS011;10060;48.274;12.214;2023-02-03T11:30:08;1.60;;;1.50;;
19800;SDS011;10060;48.274;12.214;2023-02-03T11:33:14;1.60;;;1.50;;
19800;SDS011;10060;48.274;12.214;2023-02-03T11:36:18;1.50;;;1.40;;
19800;SDS011;10060;48.274;12.214;2023-02-03T11:39:25;2.80;;;1.50;;
19800;SDS011;10060;48.274;12.214;2023-02-03T11:42:28;1.33;;;1.33;;
19800;SDS011;10060;48.274;12.214;2023-02-03T11:45:34;1.67;;;1.57;;
19800;SDS011;10060;48.274;12.214;2023-02-03T11:48:37;2.50;;;1.60;;
19800;SDS011;10060;48.274;12.214;2023-02-03T11:51:41;2.53;;;1.90;;
19800;SDS011;10060;48.274;12.214;2023-02-03T11:54:46;1.47;;;1.37;;
19800;SDS011;10060;48.274;12.214;2023-02-03T11:57:55;1.97;;;1.87;;
19800;SDS011;10060;48.274;12.214;2023-02-03T12:01:02;1.67;;;1.57;;
19800;SDS011;10060;48.274;12.214;2023-02-03T12:04:19;2.10;;;1.90;;
19800;SDS011;10060;48.274;12.214;2023-02-03T12:07:39;3.03;;;1.53;;
19800;SDS011;10060;48.274;12.214;2023-02-03T12:10:46;1.80;;;1.70;;
19800;SDS011;10060;48.274;12.214;2023-02-03T12:14:01;1.60;;;1.50;;
19800;SDS011;10060;48.274;12.214;2023-02-03T12:17:12;1.60;;;1.50;;
19800;SDS011;10060;48.274;12.214;2023-02-03T12:20:29;2.07;;;1.60;;
19800;SDS011;10060;48.274;12.214;2023-02-03T12:23:36;2.87;;;1.70;;
19800;SDS011;10060;48.274;12.214;2023-02-03T12:26:44;1.70;;;1.60;;
19800;SDS011;10060;48.274;12.214;2023-02-03T12:29:50;3.47;;;1.80;;
19800;SDS011;10060;48.274;12.214;2023-02-03T12:32:55;2.60;;;1.60;;
19800;SDS011;10060;48.274;12.214;2023-02-03T12:35:58;2.77;;;2.00;;
19800;SDS011;10060;48.274;12.214;2023-02-03T12:39:05;12.93;;;1.73;;
19800;SDS011;10060;48.274;12.214;2023-02-03T12:42:13;1.60;;;1.50;;
19800;SDS011;10060;48.274;12.214;2023-02-03T12:45:18;2.40;;;1.83;;
19800;SDS011;10060;48.274;12.214;2023-02-03T12:48:21;1.23;;;1.23;;
19800;SDS011;10060;48.274;12.214;2023-02-03T12:51:27;1.43;;;1.33;;
19800;SDS011;10060;48.274;12.214;2023-02-03T12:54:36;1.63;;;1.53;;
19800;SDS011;10060;48.274;12.214;2023-02-03T12:57:40;1.33;;;1.30;;
19800;SDS011;10060;48.274;12.214;2023-02-03T13:00:46;1.40;;;1.30;;
19800;SDS011;10060;48.274;12.214;2023-02-03T13:03:50;1.50;;;1.40;;
19800;SDS011;10060;48.274;12.214;2023-02-03T13:06:57;1.30;;;1.20;;
19800;SDS011;10060;48.274;12.214;2023-02-03T13:10:02;1.50;;;1.40;;
19800;SDS011;10060;48.274;12.214;2023-02-03T13:13:06;1.37;;;1.30;;
19800;SDS011;10060;48.274;12.214;2023-02-03T13:16:13;5.37;;;1.37;;
19800;SDS011;10060;48.274;12.214;2023-02-03T13:19:20;2.50;;;1.33;;
19800;SDS011;10060;48.274;12.214;2023-02-03T13:22:23;1.50;;;1.40;;
19800;SDS011;10060;48.274;12.214;2023-02-03T13:25:26;1.83;;;1.50;;
19800;SDS011;10060;48.274;12.214;2023-02-03T13:28:36;1.50;;;1.40;;
19800;SDS011;10060;48.274;12.214;2023-02-03T13:31:44;1.50;;;1.40;;
19800;SDS011;10060;48.274;12.214;2023-02-03T13:34:58;1.23;;;1.23;;
19800;SDS011;10060;48.274;12.214;2023-02-03T13:38:13;1.50;;;1.40;;
19800;SDS011;10060;48.274;12.214;2023-02-03T13:41:21;1.50;;;1.40;;
19800;SDS011;10060;48.274;12.214;2023-02-03T13:44:27;4.50;;;1.43;;
19800;SDS011;10060;48.274;12.214;2023-02-03T13:47:31;1.20;;;1.10;;
19800;SDS011;10060;48.274;12.214;2023-02-03T13:50:34;1.70;;;1.60;;
19800;SDS011;10060;48.274;12.214;2023-02-03T13:53:37;2.10;;;1.63;;
19800;SDS011;10060;48.274;12.214;2023-02-03T13:56:41;3.53;;;1.43;;
19800;SDS011;10060;48.274;12.214;2023-02-03T13:59:44;1.67;;;1.57;;
19800;SDS011;10060;48.274;12.214;2023-02-03T14:02:54;2.10;;;1.70;;
19800;SDS011;10060;48.274;12.214;2023-02-03T14:05:57;1.63;;;1.53;;
19800;SDS011;10060;48.274;12.214;2023-02-03T14:09:00;1.47;;;1.37;;
19800;SDS011;10060;48.274;12.214;2023-02-03T14:12:15;1.40;;;1.30;;
19800;SDS011;10060;48.274;12.214;2023-02-03T14:15:19;1.40;;;1.30;;
19800;SDS011;10060;48.274;12.214;2023-02-03T14:18:38;1.60;;;1.50;;
19800;SDS011;10060;48.274;12.214;2023-02-03T14:21:45;1.60;;;1.50;;
19800;SDS011;10060;48.274;12.214;2023-02-03T14:24:48;2.00;;;1.53;;
19800;SDS011;10060;48.274;12.214;2023-02-03T14:27:53;1.67;;;1.57;;
19800;SDS011;10060;48.274;12.214;2023-02-03T14:31:00;1.53;;;1.43;;
19800;SDS011;10060;48.274;12.214;2023-02-03T14:34:06;1.73;;;1.53;;
19800;SDS011;10060;48.274;12.214;2023-02-03T14:37:19;4.63;;;1.47;;
19800;SDS011;10060;48.274;12.214;2023-02-03T14:40:23;1.50;;;1.40;;
19800;SDS011;10060;48.274;12.214;2023-02-03T14:43:31;1.43;;;1.33;;
19800;SDS011;10060;48.274;12.214;2023-02-03T14:46:43;1.73;;;1.60;;
19800;SDS011;10060;48.274;12.214;2023-02-03T14:50:00;1.43;;;1.37;;
19800;SDS011;10060;48.274;12.214;2023-02-03T14:53:22;1.13;;;1.13;;
19800;SDS011;10060;48.274;12.214;2023-02-03T14:56:30;1.67;;;1.40;;
19800;SDS011;10060;48.274;12.214;2023-02-03T14:59:59;1.77;;;1.50;;
19800;SDS011;10060;48.274;12.214;2023-02-03T15:03:22;1.03;;;1.03;;
19800;SDS011;10060;48.274;12.214;2023-02-03T15:06:36;10.00;;;1.80;;
19800;SDS011;10060;48.274;12.214;2023-02-03T15:09:40;3.23;;;1.60;;
19800;SDS011;10060;48.274;12.214;2023-02-03T15:12:45;1.87;;;1.50;;
19800;SDS011;10060;48.274;12.214;2023-02-03T15:15:48;1.80;;;1.70;;
19800;SDS011;10060;48.274;12.214;2023-02-03T15:18:56;1.70;;;1.60;;
19800;SDS011;10060;48.274;12.214;2023-02-03T15:22:00;1.53;;;1.43;;
19800;SDS011;10060;48.274;12.214;2023-02-03T15:25:02;1.93;;;1.83;;
19800;SDS011;10060;48.274;12.214;2023-02-03T15:28:18;1.50;;;1.40;;
19800;SDS011;10060;48.274;12.214;2023-02-03T15:31:23;1.50;;;1.40;;
19800;SDS011;10060;48.274;12.214;2023-02-03T15:34:27;1.60;;;1.50;;
19800;SDS011;10060;48.274;12.214;2023-02-03T15:37:32;1.80;;;1.63;;
19800;SDS011;10060;48.274;12.214;2023-02-03T15:40:41;1.50;;;1.50;;
19800;SDS011;10060;48.274;12.214;2023-02-03T15:43:44;1.60;;;1.50;;
19800;SDS011;10060;48.274;12.214;2023-02-03T15:46:47;1.40;;;1.30;;
19800;SDS011;10060;48.274;12.214;2023-02-03T15:49:56;2.37;;;1.40;;
19800;SDS011;10060;48.274;12.214;2023-02-03T15:53:02;1.43;;;1.33;;
19800;SDS011;10060;48.274;12.214;2023-02-03T15:56:10;1.30;;;1.30;;
19800;SDS011;10060;48.274;12.214;2023-02-03T15:59:17;1.50;;;1.40;;
19800;SDS011;10060;48.274;12.214;2023-02-03T16:02:26;3.00;;;1.47;;
19800;SDS011;10060;48.274;12.214;2023-02-03T16:05:30;1.80;;;1.70;;
19800;SDS011;10060;48.274;12.214;2023-02-03T16:08:37;1.93;;;1.80;;
19800;SDS011;10060;48.274;12.214;2023-02-03T16:11:40;1.43;;;1.40;;
19800;SDS011;10060;48.274;12.214;2023-02-03T16:14:43;2.70;;;2.17;;
19800;SDS011;10060;48.274;12.214;2023-02-03T16:17:46;2.87;;;1.40;;
19800;SDS011;10060;48.274;12.214;2023-02-03T16:20:56;1.73;;;1.50;;
19800;SDS011;10060;48.274;12.214;2023-02-03T16:23:59;2.27;;;1.93;;
19800;SDS011;10060;48.274;12.214;2023-02-03T16:30:24;3.53;;;2.00;;
19800;SDS011;10060;48.274;12.214;2023-02-03T16:33:44;1.50;;;1.40;;
19800;SDS011;10060;48.274;12.214;2023-02-03T16:37:10;1.80;;;1.70;;
19800;SDS011;10060;48.274;12.214;2023-02-03T16:40:31;3.63;;;1.70;;
19800;SDS011;10060;48.274;12.214;2023-02-03T16:43:51;2.53;;;2.33;;
19800;SDS011;10060;48.274;12.214;2023-02-03T16:47:20;3.20;;;1.83;;
19800;SDS011;10060;48.274;12.214;2023-02-03T16:50:40;2.60;;;1.80;;
19800;SDS011;10060;48.274;12.214;2023-02-03T16:53:56;1.83;;;1.73;;
19800;SDS011;10060;48.274;12.214;2023-02-03T16:56:59;2.37;;;1.80;;
19800;SDS011;10060;48.274;12.214;2023-02-03T17:00:02;3.53;;;1.43;;
19800;SDS011;10060;48.274;12.214;2023-02-03T17:03:05;2.60;;;2.20;;
19800;SDS011;10060;48.274;12.214;2023-02-03T17:06:07;4.70;;;2.03;;
19800;SDS011;10060;48.274;12.214;2023-02-03T17:09:10;2.90;;;1.90;;
19800;SDS011;10060;48.274;12.214;2023-02-03T17:12:13;3.20;;;1.80;;
19800;SDS011;10060;48.274;12.214;2023-02-03T17:15:16;1.70;;;1.60;;
19800;SDS011;10060;48.274;12.214;2023-02-03T17:18:18;2.37;;;2.17;;
19800;SDS011;10060;48.274;12.214;2023-02-03T17:21:21;3.27;;;1.57;;
19800;SDS011;10060;48.274;12.214;2023-02-03T17:24:24;1.83;;;1.73;;
19800;SDS011;10060;48.274;12.214;2023-02-03T17:27:27;1.90;;;1.80;;
19800;SDS011;10060;48.274;12.214;2023-02-03T17:30:30;1.90;;;1.70;;
19800;SDS011;10060;48.274;12.214;2023-02-03T17:33:33;3.13;;;1.97;;
19800;SDS011;10060;48.274;12.214;2023-02-03T17:36:35;1.87;;;1.77;;
19800;SDS011;10060;48.274;12.214;2023-02-03T17:39:37;1.80;;;1.70;;
19800;SDS011;10060;48.274;12.214;2023-02-03T17:42:41;1.70;;;1.60;;
19800;SDS011;10060;48.274;12.214;2023-02-03T17:45:43;1.60;;;1.50;;
19800;SDS011;10060;48.274;12.214;2023-02-03T17:48:45;3.43;;;1.90;;
19800;SDS011;10060;48.274;12.214;2023-02-03T17:51:47;1.73;;;1.63;;
19800;SDS011;10060;48.274;12.214;2023-02-03T17:54:49;1.70;;;1.60;;
19800;SDS011;10060;48.274;12.214;2023-02-03T17:57:52;1.27;;;1.27;;
19800;SDS011;10060;48.274;12.214;2023-02-03T18:00:54;2.53;;;1.80;;
19800;SDS011;10060;48.274;12.214;2023-02-03T18:03:57;2.57;;;1.80;;
19800;SDS011;10060;48.274;12.214;2023-02-03T18:07:00;2.77;;;1.70;;
19800;SDS011;10060;48.274;12.214;2023-02-03T18:10:02;4.23;;;1.83;;
19800;SDS011;10060;48.274;12.214;2023-02-03T18:13:05;1.67;;;1.57;;
19800;SDS011;10060;48.274;12.214;2023-02-03T18:16:12;1.70;;;1.60;;
19800;SDS011;10060;48.274;12.214;2023-02-03T18:19:15;1.70;;;1.60;;